Map

Track Data

SID SEASON NUMBER BASIN SUBBASIN NAME ISO_TIME NATURE LAT LON WMO_WIND WMO_PRES WMO_AGENCY TRACK_TYPE DIST2LAND LANDFALL IFLAG USA_AGENCY USA_ATCF_ID USA_LAT USA_LON USA_RECORD USA_STATUS USA_WIND USA_PRES USA_SSHS USA_R34_NE USA_R34_SE USA_R34_SW USA_R34_NW USA_R50_NE USA_R50_SE USA_R50_SW USA_R50_NW USA_R64_NE USA_R64_SE USA_R64_SW USA_R64_NW USA_POCI USA_ROCI USA_RMW USA_EYE TOKYO_LAT TOKYO_LON TOKYO_GRADE TOKYO_WIND TOKYO_PRES TOKYO_R50_DIR TOKYO_R50_LONG TOKYO_R50_SHORT TOKYO_R30_DIR TOKYO_R30_LONG TOKYO_R30_SHORT TOKYO_LAND CMA_LAT CMA_LON CMA_CAT CMA_WIND CMA_PRES HKO_LAT HKO_LON HKO_CAT HKO_WIND HKO_PRES NEWDELHI_LAT NEWDELHI_LON NEWDELHI_GRADE NEWDELHI_WIND NEWDELHI_PRES NEWDELHI_CI NEWDELHI_DP NEWDELHI_POCI REUNION_LAT REUNION_LON REUNION_TYPE REUNION_WIND REUNION_PRES REUNION_TNUM REUNION_CI REUNION_RMW REUNION_R34_NE REUNION_R34_SE REUNION_R34_SW REUNION_R34_NW REUNION_R50_NE REUNION_R50_SE REUNION_R50_SW REUNION_R50_NW REUNION_R64_NE REUNION_R64_SE REUNION_R64_SW REUNION_R64_NW BOM_LAT BOM_LON BOM_TYPE BOM_WIND BOM_PRES BOM_TNUM BOM_CI BOM_RMW BOM_R34_NE BOM_R34_SE BOM_R34_SW BOM_R34_NW BOM_R50_NE BOM_R50_SE BOM_R50_SW BOM_R50_NW BOM_R64_NE BOM_R64_SE BOM_R64_SW BOM_R64_NW BOM_ROCI BOM_POCI BOM_EYE BOM_POS_METHOD BOM_PRES_METHOD NADI_LAT NADI_LON NADI_CAT NADI_WIND NADI_PRES WELLINGTON_LAT WELLINGTON_LON WELLINGTON_WIND WELLINGTON_PRES DS824_LAT DS824_LON DS824_STAGE DS824_WIND DS824_PRES TD9636_LAT TD9636_LON TD9636_STAGE TD9636_WIND TD9636_PRES TD9635_LAT TD9635_LON TD9635_WIND TD9635_PRES TD9635_ROCI NEUMANN_LAT NEUMANN_LON NEUMANN_CLASS NEUMANN_WIND NEUMANN_PRES MLC_LAT MLC_LON MLC_CLASS MLC_WIND MLC_PRES USA_GUST BOM_GUST BOM_GUST_PER REUNION_GUST REUNION_GUST_PER USA_SEAHGT USA_SEARAD_NE USA_SEARAD_SE USA_SEARAD_SW USA_SEARAD_NW STORM_SPEED STORM_DIR
1885068S15069 1885 14 SI MM NOT_NAMED 1885-03-09 00:00:00 TS -14.6000 69.2000 main 1366 1342 _________O____ -1 -14.6000 69.2000 TC 4 228
1885068S15069 1885 14 SI MM NOT_NAMED 1885-03-09 03:00:00 TS -14.7400 69.0400 main 1342 1322 _________P____ -1 -14.7400 69.0400 TC 4 224
1885068S15069 1885 14 SI MM NOT_NAMED 1885-03-09 06:00:00 TS -14.9000 68.9000 main 1322 1301 _________O____ -1 -14.9000 68.9000 TC 4 214
1885068S15069 1885 14 SI MM NOT_NAMED 1885-03-09 09:00:00 TS -15.0925 68.7925 main 1301 1282 _________P____ -1 -15.0925 68.7925 TC 4 206
1885068S15069 1885 14 SI MM NOT_NAMED 1885-03-09 12:00:00 TS -15.3000 68.7000 main 1282 1262 _________O____ -1 -15.3000 68.7000 TC 5 204
1885068S15069 1885 14 SI MM NOT_NAMED 1885-03-09 15:00:00 TS -15.5000 68.6000 main 1262 1242 _________P____ -1 -15.5000 68.6000 TC 4 206
1885068S15069 1885 14 SI MM NOT_NAMED 1885-03-09 18:00:00 TS -15.7000 68.5000 main 1242 1223 _________O____ -1 -15.7000 68.5000 TC 4 205
1885068S15069 1885 14 SI MM NOT_NAMED 1885-03-09 21:00:00 TS -15.8925 68.4074 main 1223 1204 _________P____ -1 -15.8925 68.4074 TC 4 206
1885068S15069 1885 14 SI MM NOT_NAMED 1885-03-10 00:00:00 TS -16.1000 68.3000 main 1204 1185 _________O____ -1 -16.1000 68.3000 TC 5 208
1885068S15069 1885 14 SI MM NOT_NAMED 1885-03-10 03:00:00 TS -16.3500 68.1575 main 1180 1152 _________P____ -1 -16.3500 68.1575 TC 6 210
1885068S15069 1885 14 SI MM NOT_NAMED 1885-03-10 06:00:00 TS -16.6000 68.0000 main 1152 1134 _________O____ -1 -16.6000 68.0000 TC 5 213
1885068S15069 1885 14 SI MM NOT_NAMED 1885-03-10 09:00:00 TS -16.8075 67.8500 main 1124 1106 _________P____ -1 -16.8075 67.8500 TC 5 216
1885068S15069 1885 14 SI MM NOT_NAMED 1885-03-10 12:00:00 TS -17.0000 67.7000 main 1106 1088 _________O____ -1 -17.0000 67.7000 TC 5 217
1885068S15069 1885 14 SI MM NOT_NAMED 1885-03-10 15:00:00 TS -17.2000 67.5425 main 1078 1060 _________P____ -1 -17.2000 67.5425 TC 5 215
1885068S15069 1885 14 SI MM NOT_NAMED 1885-03-10 18:00:00 TS -17.4000 67.4000 main 1060 1043 _________O____ -1 -17.4000 67.4000 TC 5 210
1885068S15069 1885 14 SI MM NOT_NAMED 1885-03-10 21:00:00 TS -17.6075 67.2925 main 1043 1026 _________P____ -1 -17.6075 67.2925 TC 4 205
1885068S15069 1885 14 SI MM NOT_NAMED 1885-03-11 00:00:00 TS -17.8000 67.2000 main 1026 1013 _________O____ -1 -17.8000 67.2000 TC 4 208
1885068S15069 1885 14 SI MM NOT_NAMED 1885-03-11 03:00:00 TS -17.9575 67.0925 main 1010 996 _________P____ -1 -17.9575 67.0925 TC 4 212
1885068S15069 1885 14 SI MM NOT_NAMED 1885-03-11 06:00:00 TS -18.1000 67.0000 main 996 993 _________O____ -1 -18.1000 67.0000 TC 3 205
1885068S15069 1885 14 SI MM NOT_NAMED 1885-03-11 09:00:00 TS -18.2500 66.9500 main 983 977 _________P____ -1 -18.2500 66.9500 TC 3 197
1885068S15069 1885 14 SI MM NOT_NAMED 1885-03-11 12:00:00 TS -18.4000 66.9000 main 977 965 _________O____ -1 -18.4000 66.9000 TC 3 206
1885068S15069 1885 14 SI MM NOT_NAMED 1885-03-11 15:00:00 TS -18.5500 66.8000 main 962 949 _________P____ -1 -18.5500 66.8000 TC 4 212
1885068S15069 1885 14 SI MM NOT_NAMED 1885-03-11 18:00:00 TS -18.7000 66.7000 main 949 947 _________O____ -1 -18.7000 66.7000 TC 3 206
1885068S15069 1885 14 SI MM NOT_NAMED 1885-03-11 21:00:00 TS -18.8425 66.6499 main 937 932 _________P____ -1 -18.8425 66.6499 TC 3 197
1885068S15069 1885 14 SI MM NOT_NAMED 1885-03-12 00:00:00 TS -19.0000 66.6000 main 932 918 _________O____ -1 -19.0000 66.6000 TC 4 202
1885068S15069 1885 14 SI MM NOT_NAMED 1885-03-12 03:00:00 TS -19.1925 66.5000 main 918 904 _________P____ -1 -19.1925 66.5000 TC 4 205
1885068S15069 1885 14 SI MM NOT_NAMED 1885-03-12 06:00:00 TS -19.4000 66.4000 main 904 902 _________O____ -1 -19.4000 66.4000 TC 4 199
1885068S15069 1885 14 SI MM NOT_NAMED 1885-03-12 09:00:00 TS -19.6075 66.3499 main 891 889 _________P____ -1 -19.6075 66.3499 TC 4 193
1885068S15069 1885 14 SI MM NOT_NAMED 1885-03-12 12:00:00 TS -19.8000 66.3000 main 889 878 _________O____ -1 -19.8000 66.3000 TC 4 202
1885068S15069 1885 14 SI MM NOT_NAMED 1885-03-12 15:00:00 TS -19.9575 66.2000 main 877 866 _________P____ -1 -19.9575 66.2000 TC 4 212
1885068S15069 1885 14 SI MM NOT_NAMED 1885-03-12 18:00:00 TS -20.1000 66.1000 main 866 865 _________O____ -1 -20.1000 66.1000 TC 3 207
1885068S15069 1885 14 SI MM NOT_NAMED 1885-03-12 21:00:00 TS -20.2425 66.0499 main 855 854 _________P____ -1 -20.2425 66.0499 TC 3 197
1885068S15069 1885 14 SI MM NOT_NAMED 1885-03-13 00:00:00 TS -20.4000 66.0000 main 854 844 _________O____ -1 -20.4000 66.0000 TC 4 200
1885068S15069 1885 14 SI MM NOT_NAMED 1885-03-13 03:00:00 TS -20.5925 65.9075 main 844 834 _________P____ -1 -20.5925 65.9075 TC 4 205
1885068S15069 1885 14 SI MM NOT_NAMED 1885-03-13 06:00:00 TS -20.8000 65.8000 main 834 824 _________O____ -1 -20.8000 65.8000 TC 5 205
1885068S15069 1885 14 SI MM NOT_NAMED 1885-03-13 09:00:00 TS -21.0075 65.7000 main 825 816 _________P____ -1 -21.0075 65.7000 TC 4 205
1885068S15069 1885 14 SI MM NOT_NAMED 1885-03-13 12:00:00 TS -21.2000 65.6000 main 817 807 _________O____ -1 -21.2000 65.6000 TC 4 209
1885068S15069 1885 14 SI MM NOT_NAMED 1885-03-13 15:00:00 TS -21.3575 65.4925 main 809 799 _________P____ -1 -21.3575 65.4925 TC 4 211
1885068S15069 1885 14 SI MM NOT_NAMED 1885-03-13 18:00:00 TS -21.5000 65.4000 main 800 800 _________O____ -1 -21.5000 65.4000 TC 3 206
1885068S15069 1885 14 SI MM NOT_NAMED 1885-03-13 21:00:00 TS -21.6275 65.3499 main 792 792 _________P____ -1 -21.6275 65.3499 TC 3 197
1885068S15069 1885 14 SI MM NOT_NAMED 1885-03-14 00:00:00 TS -21.8000 65.3000 main 795 787 _________O____ -1 -21.8000 65.3000 TC 5 197
1885068S15069 1885 14 SI MM NOT_NAMED 1885-03-14 03:00:00 TS -22.0775 65.2001 main 792 785 _________P____ -1 -22.0775 65.2001 TC 6 197
1885068S15069 1885 14 SI MM NOT_NAMED 1885-03-14 06:00:00 TS -22.4000 65.1000 main 791 791 _________O____ -1 -22.4000 65.1000 TC 6 193
1885068S15069 1885 14 SI MM NOT_NAMED 1885-03-14 09:00:00 TS -22.7000 65.0499 main 791 791 _________P____ -1 -22.7000 65.0499 TC 6 188
1885068S15069 1885 14 SI MM NOT_NAMED 1885-03-14 12:00:00 TS -23.0000 65.0000 main 802 801 _________O____ -1 -23.0000 65.0000 TC 6 193
1885068S15069 1885 14 SI MM NOT_NAMED 1885-03-14 15:00:00 TS -23.2925 64.9000 main 805 800 _________P____ -1 -23.2925 64.9000 TC 6 197
1885068S15069 1885 14 SI MM NOT_NAMED 1885-03-14 18:00:00 TS -23.6000 64.8000 main 809 809 _________O____ -1 -23.6000 64.8000 TC 7 193
1885068S15069 1885 14 SI MM NOT_NAMED 1885-03-14 21:00:00 TS -23.9400 64.7375 main 814 814 _________P____ -1 -23.9400 64.7375 TC 7 187
1885068S15069 1885 14 SI MM NOT_NAMED 1885-03-15 00:00:00 TS -24.3000 64.7000 main 835 _________O____ -1 -24.3000 64.7000 TC 7 187

About IBTrACS Database

This database is a web-friendly format of International Best Track Archive for Climate Stewardship (IBTrACS), a global best track data archive curated by NOAA dating back to 1842.

Updated: 2021-12-08